sensor_id;sensor_type;location;lat;lon;timestamp;temperature;humidity
21807;DHT22;11065;50.786;7.840;2022-12-08T00:01:02;8.10;57.90
21807;DHT22;11065;50.786;7.840;2022-12-08T00:03:29;8.10;57.90
21807;DHT22;11065;50.786;7.840;2022-12-08T00:05:56;8.00;57.80
21807;DHT22;11065;50.786;7.840;2022-12-08T00:08:42;8.00;57.80
21807;DHT22;11065;50.786;7.840;2022-12-08T00:11:27;8.00;57.80
21807;DHT22;11065;50.786;7.840;2022-12-08T00:13:54;8.00;57.80
21807;DHT22;11065;50.786;7.840;2022-12-08T00:16:21;8.00;57.80
21807;DHT22;11065;50.786;7.840;2022-12-08T00:18:48;8.00;57.80
21807;DHT22;11065;50.786;7.840;2022-12-08T00:21:15;8.00;58.30
21807;DHT22;11065;50.786;7.840;2022-12-08T00:23:41;8.00;58.30
21807;DHT22;11065;50.786;7.840;2022-12-08T00:26:08;8.00;57.90
21807;DHT22;11065;50.786;7.840;2022-12-08T00:28:35;8.00;57.90
21807;DHT22;11065;50.786;7.840;2022-12-08T00:31:11;8.00;57.80
21807;DHT22;11065;50.786;7.840;2022-12-08T00:33:38;8.00;57.80
21807;DHT22;11065;50.786;7.840;2022-12-08T00:36:10;8.00;57.80
21807;DHT22;11065;50.786;7.840;2022-12-08T00:38:38;8.00;57.80
21807;DHT22;11065;50.786;7.840;2022-12-08T00:41:16;8.00;57.80
21807;DHT22;11065;50.786;7.840;2022-12-08T00:43:44;7.90;57.70
21807;DHT22;11065;50.786;7.840;2022-12-08T00:46:10;8.00;57.60
21807;DHT22;11065;50.786;7.840;2022-12-08T00:48:38;8.00;57.70
21807;DHT22;11065;50.786;7.840;2022-12-08T00:51:05;7.90;57.70
21807;DHT22;11065;50.786;7.840;2022-12-08T00:53:31;7.90;57.70
21807;DHT22;11065;50.786;7.840;2022-12-08T00:55:58;7.90;57.70
21807;DHT22;11065;50.786;7.840;2022-12-08T00:58:25;7.90;57.70
21807;DHT22;11065;50.786;7.840;2022-12-08T01:00:52;7.90;57.70
21807;DHT22;11065;50.786;7.840;2022-12-08T01:03:18;7.90;57.80
21807;DHT22;11065;50.786;7.840;2022-12-08T01:05:45;7.90;57.80
21807;DHT22;11065;50.786;7.840;2022-12-08T01:08:12;7.90;57.70
21807;DHT22;11065;50.786;7.840;2022-12-08T01:10:39;7.90;57.70
21807;DHT22;11065;50.786;7.840;2022-12-08T01:13:05;7.90;58.20
21807;DHT22;11065;50.786;7.840;2022-12-08T01:15:32;7.90;57.70
21807;DHT22;11065;50.786;7.840;2022-12-08T01:17:59;7.90;57.80
21807;DHT22;11065;50.786;7.840;2022-12-08T01:20:26;7.80;57.80
21807;DHT22;11065;50.786;7.840;2022-12-08T01:22:52;7.90;57.80
21807;DHT22;11065;50.786;7.840;2022-12-08T01:25:19;7.90;57.80
21807;DHT22;11065;50.786;7.840;2022-12-08T01:27:46;7.90;57.80
21807;DHT22;11065;50.786;7.840;2022-12-08T01:30:13;7.90;57.80
21807;DHT22;11065;50.786;7.840;2022-12-08T01:32:40;7.90;57.80
21807;DHT22;11065;50.786;7.840;2022-12-08T01:35:07;7.90;57.80
21807;DHT22;11065;50.786;7.840;2022-12-08T01:37:34;7.90;57.80
21807;DHT22;11065;50.786;7.840;2022-12-08T01:40:01;7.90;57.70
21807;DHT22;11065;50.786;7.840;2022-12-08T01:42:28;7.90;57.60
21807;DHT22;11065;50.786;7.840;2022-12-08T01:45:00;7.90;57.60
21807;DHT22;11065;50.786;7.840;2022-12-08T01:47:38;7.90;57.60
21807;DHT22;11065;50.786;7.840;2022-12-08T01:50:09;7.90;57.80
21807;DHT22;11065;50.786;7.840;2022-12-08T01:52:40;7.80;57.50
21807;DHT22;11065;50.786;7.840;2022-12-08T01:55:37;7.80;57.60
21807;DHT22;11065;50.786;7.840;2022-12-08T01:58:12;7.80;58.00
21807;DHT22;11065;50.786;7.840;2022-12-08T02:00:41;7.80;57.60
21807;DHT22;11065;50.786;7.840;2022-12-08T02:03:12;7.80;57.70
21807;DHT22;11065;50.786;7.840;2022-12-08T02:05:40;7.80;57.70
21807;DHT22;11065;50.786;7.840;2022-12-08T02:08:09;7.80;57.70
21807;DHT22;11065;50.786;7.840;2022-12-08T02:10:39;7.80;57.70
21807;DHT22;11065;50.786;7.840;2022-12-08T02:13:08;7.80;57.60
21807;DHT22;11065;50.786;7.840;2022-12-08T02:18:46;7.80;57.70
21807;DHT22;11065;50.786;7.840;2022-12-08T02:21:54;7.80;57.70
21807;DHT22;11065;50.786;7.840;2022-12-08T02:27:27;7.80;57.70
21807;DHT22;11065;50.786;7.840;2022-12-08T02:43:37;7.80;57.70
21807;DHT22;11065;50.786;7.840;2022-12-08T02:46:08;7.80;57.70
21807;DHT22;11065;50.786;7.840;2022-12-08T02:48:36;7.70;57.60
21807;DHT22;11065;50.786;7.840;2022-12-08T02:51:04;7.70;57.50
21807;DHT22;11065;50.786;7.840;2022-12-08T02:53:32;7.70;57.60
21807;DHT22;11065;50.786;7.840;2022-12-08T02:59:29;7.70;57.60
21807;DHT22;11065;50.786;7.840;2022-12-08T03:10:34;7.60;57.50
21807;DHT22;11065;50.786;7.840;2022-12-08T03:13:12;7.60;57.50
21807;DHT22;11065;50.786;7.840;2022-12-08T03:15:40;7.60;57.60
21807;DHT22;11065;50.786;7.840;2022-12-08T03:18:10;7.60;57.60
21807;DHT22;11065;50.786;7.840;2022-12-08T03:20:39;7.60;57.60
21807;DHT22;11065;50.786;7.840;2022-12-08T03:23:09;7.60;57.60
21807;DHT22;11065;50.786;7.840;2022-12-08T03:25:42;7.60;57.70
21807;DHT22;11065;50.786;7.840;2022-12-08T03:28:10;7.60;57.70
21807;DHT22;11065;50.786;7.840;2022-12-08T03:30:39;7.60;57.70
21807;DHT22;11065;50.786;7.840;2022-12-08T03:33:27;7.60;57.70
21807;DHT22;11065;50.786;7.840;2022-12-08T03:35:54;7.60;57.70
21807;DHT22;11065;50.786;7.840;2022-12-08T03:38:22;7.60;57.60
21807;DHT22;11065;50.786;7.840;2022-12-08T03:40:49;7.60;57.60
21807;DHT22;11065;50.786;7.840;2022-12-08T03:43:36;7.60;57.60
21807;DHT22;11065;50.786;7.840;2022-12-08T03:46:02;7.60;57.50
21807;DHT22;11065;50.786;7.840;2022-12-08T03:48:29;7.60;57.50
21807;DHT22;11065;50.786;7.840;2022-12-08T03:50:56;7.60;57.50
21807;DHT22;11065;50.786;7.840;2022-12-08T03:53:23;7.60;57.50
21807;DHT22;11065;50.786;7.840;2022-12-08T03:55:52;7.60;57.50
21807;DHT22;11065;50.786;7.840;2022-12-08T03:58:18;7.60;57.40
21807;DHT22;11065;50.786;7.840;2022-12-08T04:00:45;7.60;57.50
21807;DHT22;11065;50.786;7.840;2022-12-08T04:03:12;7.60;57.30
21807;DHT22;11065;50.786;7.840;2022-12-08T04:05:39;7.60;57.40
21807;DHT22;11065;50.786;7.840;2022-12-08T04:08:06;7.60;57.40
21807;DHT22;11065;50.786;7.840;2022-12-08T04:10:33;7.60;57.40
21807;DHT22;11065;50.786;7.840;2022-12-08T04:12:59;7.60;57.40
21807;DHT22;11065;50.786;7.840;2022-12-08T04:15:26;7.60;57.40
21807;DHT22;11065;50.786;7.840;2022-12-08T04:17:53;7.60;57.40
21807;DHT22;11065;50.786;7.840;2022-12-08T04:20:20;7.60;57.40
21807;DHT22;11065;50.786;7.840;2022-12-08T04:22:46;7.60;57.40
21807;DHT22;11065;50.786;7.840;2022-12-08T04:25:13;7.60;57.40
21807;DHT22;11065;50.786;7.840;2022-12-08T04:27:40;7.60;57.30
21807;DHT22;11065;50.786;7.840;2022-12-08T04:30:07;7.60;57.30
21807;DHT22;11065;50.786;7.840;2022-12-08T04:32:34;7.60;57.20
21807;DHT22;11065;50.786;7.840;2022-12-08T04:35:01;7.60;57.30
21807;DHT22;11065;50.786;7.840;2022-12-08T04:37:28;7.60;57.40
21807;DHT22;11065;50.786;7.840;2022-12-08T04:39:55;7.70;57.40
21807;DHT22;11065;50.786;7.840;2022-12-08T04:42:21;7.60;57.30
21807;DHT22;11065;50.786;7.840;2022-12-08T04:44:48;7.60;57.30
21807;DHT22;11065;50.786;7.840;2022-12-08T04:47:15;7.60;57.20
21807;DHT22;11065;50.786;7.840;2022-12-08T04:49:42;7.60;57.20
21807;DHT22;11065;50.786;7.840;2022-12-08T04:52:09;7.60;57.30
21807;DHT22;11065;50.786;7.840;2022-12-08T04:54:36;7.60;57.30
21807;DHT22;11065;50.786;7.840;2022-12-08T04:57:03;7.60;57.30
21807;DHT22;11065;50.786;7.840;2022-12-08T04:59:30;7.60;57.10
21807;DHT22;11065;50.786;7.840;2022-12-08T05:01:56;7.60;57.10
21807;DHT22;11065;50.786;7.840;2022-12-08T05:04:23;7.60;57.10
21807;DHT22;11065;50.786;7.840;2022-12-08T05:06:50;7.60;57.20
21807;DHT22;11065;50.786;7.840;2022-12-08T05:09:17;7.60;57.20
21807;DHT22;11065;50.786;7.840;2022-12-08T05:11:44;7.60;57.20
21807;DHT22;11065;50.786;7.840;2022-12-08T05:14:16;7.60;57.20
21807;DHT22;11065;50.786;7.840;2022-12-08T05:16:44;7.60;57.10
21807;DHT22;11065;50.786;7.840;2022-12-08T05:19:11;7.60;57.20
21807;DHT22;11065;50.786;7.840;2022-12-08T05:21:38;7.60;57.20
21807;DHT22;11065;50.786;7.840;2022-12-08T05:24:05;7.60;57.20
21807;DHT22;11065;50.786;7.840;2022-12-08T05:26:32;7.60;57.30
21807;DHT22;11065;50.786;7.840;2022-12-08T05:28:59;7.60;57.30
21807;DHT22;11065;50.786;7.840;2022-12-08T05:31:26;7.60;57.30
21807;DHT22;11065;50.786;7.840;2022-12-08T05:33:53;7.60;57.40
21807;DHT22;11065;50.786;7.840;2022-12-08T05:36:25;7.60;57.30
21807;DHT22;11065;50.786;7.840;2022-12-08T05:38:52;7.60;57.30
21807;DHT22;11065;50.786;7.840;2022-12-08T05:41:19;7.60;57.30
21807;DHT22;11065;50.786;7.840;2022-12-08T05:43:46;7.60;57.30
21807;DHT22;11065;50.786;7.840;2022-12-08T05:46:14;7.60;57.30
21807;DHT22;11065;50.786;7.840;2022-12-08T05:48:41;7.60;57.30
21807;DHT22;11065;50.786;7.840;2022-12-08T05:51:16;7.60;57.30
21807;DHT22;11065;50.786;7.840;2022-12-08T05:53:43;7.60;57.10
21807;DHT22;11065;50.786;7.840;2022-12-08T05:56:10;7.60;57.00
21807;DHT22;11065;50.786;7.840;2022-12-08T05:58:38;7.50;57.00
21807;DHT22;11065;50.786;7.840;2022-12-08T06:01:05;7.50;56.90
21807;DHT22;11065;50.786;7.840;2022-12-08T06:03:32;7.50;57.00
21807;DHT22;11065;50.786;7.840;2022-12-08T06:05:59;7.40;57.10
21807;DHT22;11065;50.786;7.840;2022-12-08T06:08:26;7.40;57.10
21807;DHT22;11065;50.786;7.840;2022-12-08T06:10:53;7.40;57.20
21807;DHT22;11065;50.786;7.840;2022-12-08T06:13:20;7.40;57.30
21807;DHT22;11065;50.786;7.840;2022-12-08T06:15:46;7.40;57.40
21807;DHT22;11065;50.786;7.840;2022-12-08T06:18:13;7.40;57.50
21807;DHT22;11065;50.786;7.840;2022-12-08T06:20:40;7.40;57.40
21807;DHT22;11065;50.786;7.840;2022-12-08T06:23:06;7.40;57.30
21807;DHT22;11065;50.786;7.840;2022-12-08T06:25:33;7.30;57.30
21807;DHT22;11065;50.786;7.840;2022-12-08T06:28:00;7.30;57.30
21807;DHT22;11065;50.786;7.840;2022-12-08T06:30:27;7.30;57.40
21807;DHT22;11065;50.786;7.840;2022-12-08T06:32:54;7.30;57.40
21807;DHT22;11065;50.786;7.840;2022-12-08T06:35:20;7.30;57.50
21807;DHT22;11065;50.786;7.840;2022-12-08T06:37:47;7.30;57.80
21807;DHT22;11065;50.786;7.840;2022-12-08T06:40:14;7.30;57.40
21807;DHT22;11065;50.786;7.840;2022-12-08T06:42:43;7.30;57.40
21807;DHT22;11065;50.786;7.840;2022-12-08T06:45:11;7.30;57.50
21807;DHT22;11065;50.786;7.840;2022-12-08T06:47:38;7.30;57.50
21807;DHT22;11065;50.786;7.840;2022-12-08T06:50:06;7.30;57.50
21807;DHT22;11065;50.786;7.840;2022-12-08T06:52:33;7.30;57.60
21807;DHT22;11065;50.786;7.840;2022-12-08T06:55:07;7.30;57.60
21807;DHT22;11065;50.786;7.840;2022-12-08T06:57:34;7.30;57.60
21807;DHT22;11065;50.786;7.840;2022-12-08T07:00:02;7.30;57.60
21807;DHT22;11065;50.786;7.840;2022-12-08T07:02:29;7.30;57.60
21807;DHT22;11065;50.786;7.840;2022-12-08T07:04:56;7.30;57.60
21807;DHT22;11065;50.786;7.840;2022-12-08T07:07:23;7.30;57.50
21807;DHT22;11065;50.786;7.840;2022-12-08T07:09:50;7.40;57.60
21807;DHT22;11065;50.786;7.840;2022-12-08T07:12:17;7.40;57.50
21807;DHT22;11065;50.786;7.840;2022-12-08T07:14:44;7.40;57.50
21807;DHT22;11065;50.786;7.840;2022-12-08T07:17:11;7.40;57.50
21807;DHT22;11065;50.786;7.840;2022-12-08T07:19:38;7.40;57.50
21807;DHT22;11065;50.786;7.840;2022-12-08T07:22:05;7.40;57.50
21807;DHT22;11065;50.786;7.840;2022-12-08T07:24:32;7.40;57.40
21807;DHT22;11065;50.786;7.840;2022-12-08T07:26:59;7.40;57.40
21807;DHT22;11065;50.786;7.840;2022-12-08T07:29:25;7.40;57.50
21807;DHT22;11065;50.786;7.840;2022-12-08T07:31:52;7.40;57.30
21807;DHT22;11065;50.786;7.840;2022-12-08T07:34:19;7.40;57.30
21807;DHT22;11065;50.786;7.840;2022-12-08T07:36:45;7.40;57.40
21807;DHT22;11065;50.786;7.840;2022-12-08T07:39:12;7.40;57.40
21807;DHT22;11065;50.786;7.840;2022-12-08T07:41:39;7.40;57.40
21807;DHT22;11065;50.786;7.840;2022-12-08T07:44:06;7.50;57.30
21807;DHT22;11065;50.786;7.840;2022-12-08T07:46:32;7.50;57.30
21807;DHT22;11065;50.786;7.840;2022-12-08T07:48:59;7.40;57.30
21807;DHT22;11065;50.786;7.840;2022-12-08T07:51:27;7.50;57.40
21807;DHT22;11065;50.786;7.840;2022-12-08T07:53:53;7.50;57.40
21807;DHT22;11065;50.786;7.840;2022-12-08T07:56:21;7.50;57.40
21807;DHT22;11065;50.786;7.840;2022-12-08T07:58:48;7.50;57.30
21807;DHT22;11065;50.786;7.840;2022-12-08T08:03:46;7.50;57.30
21807;DHT22;11065;50.786;7.840;2022-12-08T08:06:13;7.50;57.20
21807;DHT22;11065;50.786;7.840;2022-12-08T08:08:39;7.50;57.10
21807;DHT22;11065;50.786;7.840;2022-12-08T08:11:07;7.50;57.10
21807;DHT22;11065;50.786;7.840;2022-12-08T08:13:44;7.50;57.20
21807;DHT22;11065;50.786;7.840;2022-12-08T08:16:11;7.50;57.20
21807;DHT22;11065;50.786;7.840;2022-12-08T08:18:39;7.50;57.10
21807;DHT22;11065;50.786;7.840;2022-12-08T08:21:06;7.50;57.10
21807;DHT22;11065;50.786;7.840;2022-12-08T08:23:53;7.50;57.20
21807;DHT22;11065;50.786;7.840;2022-12-08T08:26:20;7.50;57.20
21807;DHT22;11065;50.786;7.840;2022-12-08T08:28:47;7.50;57.20
21807;DHT22;11065;50.786;7.840;2022-12-08T08:31:15;7.50;57.20
21807;DHT22;11065;50.786;7.840;2022-12-08T08:33:42;7.60;57.30
21807;DHT22;11065;50.786;7.840;2022-12-08T08:36:09;7.60;57.20
21807;DHT22;11065;50.786;7.840;2022-12-08T08:38:36;7.60;57.10
21807;DHT22;11065;50.786;7.840;2022-12-08T08:41:09;7.60;57.10
21807;DHT22;11065;50.786;7.840;2022-12-08T08:43:36;7.60;57.10
21807;DHT22;11065;50.786;7.840;2022-12-08T08:46:05;7.60;57.10
21807;DHT22;11065;50.786;7.840;2022-12-08T08:48:32;7.60;57.00
21807;DHT22;11065;50.786;7.840;2022-12-08T08:51:06;7.60;57.10
21807;DHT22;11065;50.786;7.840;2022-12-08T08:53:33;7.60;57.10
21807;DHT22;11065;50.786;7.840;2022-12-08T08:56:00;7.70;57.20
21807;DHT22;11065;50.786;7.840;2022-12-08T08:58:28;7.60;57.10
21807;DHT22;11065;50.786;7.840;2022-12-08T09:00:55;7.70;57.10
21807;DHT22;11065;50.786;7.840;2022-12-08T09:03:22;7.70;57.10
21807;DHT22;11065;50.786;7.840;2022-12-08T09:05:49;7.70;57.10
21807;DHT22;11065;50.786;7.840;2022-12-08T09:08:17;7.70;57.10
21807;DHT22;11065;50.786;7.840;2022-12-08T09:10:44;7.70;57.10
21807;DHT22;11065;50.786;7.840;2022-12-08T09:13:11;7.70;57.20
21807;DHT22;11065;50.786;7.840;2022-12-08T09:15:37;7.70;57.20
21807;DHT22;11065;50.786;7.840;2022-12-08T09:18:05;7.70;57.00
21807;DHT22;11065;50.786;7.840;2022-12-08T09:20:33;7.70;57.10
21807;DHT22;11065;50.786;7.840;2022-12-08T09:23:00;7.70;57.10
21807;DHT22;11065;50.786;7.840;2022-12-08T09:25:27;7.70;57.10
21807;DHT22;11065;50.786;7.840;2022-12-08T09:27:54;7.70;57.10
21807;DHT22;11065;50.786;7.840;2022-12-08T09:30:21;7.70;57.10
21807;DHT22;11065;50.786;7.840;2022-12-08T09:32:48;7.70;57.20
21807;DHT22;11065;50.786;7.840;2022-12-08T09:35:15;7.70;57.70
21807;DHT22;11065;50.786;7.840;2022-12-08T09:37:42;7.80;57.60
21807;DHT22;11065;50.786;7.840;2022-12-08T09:40:11;7.80;57.50
21807;DHT22;11065;50.786;7.840;2022-12-08T09:42:58;7.80;57.40
21807;DHT22;11065;50.786;7.840;2022-12-08T09:45:29;7.80;57.30
21807;DHT22;11065;50.786;7.840;2022-12-08T09:48:13;7.80;57.30
21807;DHT22;11065;50.786;7.840;2022-12-08T09:50:50;7.80;57.10
21807;DHT22;11065;50.786;7.840;2022-12-08T09:56:19;7.70;57.20
21807;DHT22;11065;50.786;7.840;2022-12-08T09:59:22;7.80;57.30
21807;DHT22;11065;50.786;7.840;2022-12-08T10:01:51;7.80;57.30
21807;DHT22;11065;50.786;7.840;2022-12-08T10:04:28;7.70;57.20
21807;DHT22;11065;50.786;7.840;2022-12-08T10:10:34;7.70;57.20
21807;DHT22;11065;50.786;7.840;2022-12-08T10:13:32;7.70;57.30
21807;DHT22;11065;50.786;7.840;2022-12-08T10:16:14;7.70;57.30
21807;DHT22;11065;50.786;7.840;2022-12-08T10:19:01;7.70;57.30
21807;DHT22;11065;50.786;7.840;2022-12-08T10:21:34;7.80;57.50
21807;DHT22;11065;50.786;7.840;2022-12-08T10:24:08;7.80;57.50
21807;DHT22;11065;50.786;7.840;2022-12-08T10:26:38;7.80;57.40
21807;DHT22;11065;50.786;7.840;2022-12-08T10:29:11;7.80;57.40
21807;DHT22;11065;50.786;7.840;2022-12-08T10:31:37;7.80;57.40
21807;DHT22;11065;50.786;7.840;2022-12-08T10:34:19;7.90;57.50
21807;DHT22;11065;50.786;7.840;2022-12-08T10:36:54;7.90;57.40
21807;DHT22;11065;50.786;7.840;2022-12-08T10:39:41;7.90;57.50
21807;DHT22;11065;50.786;7.840;2022-12-08T10:42:18;7.90;57.60
21807;DHT22;11065;50.786;7.840;2022-12-08T10:47:37;8.00;57.80
21807;DHT22;11065;50.786;7.840;2022-12-08T10:53:00;8.00;57.70
21807;DHT22;11065;50.786;7.840;2022-12-08T10:55:28;8.00;57.70
21807;DHT22;11065;50.786;7.840;2022-12-08T10:57:55;8.00;57.70
21807;DHT22;11065;50.786;7.840;2022-12-08T11:00:26;8.10;57.80
21807;DHT22;11065;50.786;7.840;2022-12-08T11:03:02;8.10;57.50
21807;DHT22;11065;50.786;7.840;2022-12-08T11:05:34;8.10;57.30
21807;DHT22;11065;50.786;7.840;2022-12-08T11:08:03;8.10;57.30
21807;DHT22;11065;50.786;7.840;2022-12-08T11:10:36;8.10;57.20
21807;DHT22;11065;50.786;7.840;2022-12-08T11:13:23;8.10;57.20
21807;DHT22;11065;50.786;7.840;2022-12-08T11:15:53;8.10;57.20
21807;DHT22;11065;50.786;7.840;2022-12-08T11:18:37;8.10;57.20
21807;DHT22;11065;50.786;7.840;2022-12-08T11:21:12;8.10;57.30
21807;DHT22;11065;50.786;7.840;2022-12-08T11:23:41;8.10;57.50
21807;DHT22;11065;50.786;7.840;2022-12-08T11:26:28;8.20;57.80
21807;DHT22;11065;50.786;7.840;2022-12-08T11:28:56;8.30;57.80
21807;DHT22;11065;50.786;7.840;2022-12-08T11:31:33;8.40;57.80
21807;DHT22;11065;50.786;7.840;2022-12-08T11:34:01;8.50;57.60
21807;DHT22;11065;50.786;7.840;2022-12-08T11:36:31;8.50;57.60
21807;DHT22;11065;50.786;7.840;2022-12-08T11:39:02;8.60;57.30
21807;DHT22;11065;50.786;7.840;2022-12-08T11:41:35;8.60;57.10
21807;DHT22;11065;50.786;7.840;2022-12-08T11:45:01;8.60;56.90
21807;DHT22;11065;50.786;7.840;2022-12-08T11:47:12;8.60;56.80
21807;DHT22;11065;50.786;7.840;2022-12-08T11:49:41;8.70;57.00
21807;DHT22;11065;50.786;7.840;2022-12-08T11:54:49;8.70;56.70
21807;DHT22;11065;50.786;7.840;2022-12-08T11:57:20;8.70;56.60
21807;DHT22;11065;50.786;7.840;2022-12-08T11:59:50;8.80;56.50
21807;DHT22;11065;50.786;7.840;2022-12-08T12:02:26;8.70;56.40
21807;DHT22;11065;50.786;7.840;2022-12-08T12:05:07;8.70;56.10
21807;DHT22;11065;50.786;7.840;2022-12-08T12:07:57;8.70;56.10
21807;DHT22;11065;50.786;7.840;2022-12-08T12:16:26;8.60;55.60
21807;DHT22;11065;50.786;7.840;2022-12-08T12:19:03;8.60;55.50
21807;DHT22;11065;50.786;7.840;2022-12-08T12:21:35;8.60;55.80
21807;DHT22;11065;50.786;7.840;2022-12-08T12:24:19;8.60;55.90
21807;DHT22;11065;50.786;7.840;2022-12-08T12:27:01;8.60;55.70
21807;DHT22;11065;50.786;7.840;2022-12-08T12:29:33;8.60;55.90
21807;DHT22;11065;50.786;7.840;2022-12-08T12:32:04;8.60;56.00
21807;DHT22;11065;50.786;7.840;2022-12-08T12:34:35;8.60;55.80
21807;DHT22;11065;50.786;7.840;2022-12-08T12:39:57;8.50;55.80
21807;DHT22;11065;50.786;7.840;2022-12-08T12:48:13;8.40;55.50
21807;DHT22;11065;50.786;7.840;2022-12-08T12:50:46;8.40;55.40
21807;DHT22;11065;50.786;7.840;2022-12-08T13:03:44;8.30;55.70
21807;DHT22;11065;50.786;7.840;2022-12-08T13:06:14;8.30;55.80
21807;DHT22;11065;50.786;7.840;2022-12-08T13:08:51;8.30;55.80
21807;DHT22;11065;50.786;7.840;2022-12-08T13:11:19;8.30;55.80
21807;DHT22;11065;50.786;7.840;2022-12-08T13:14:01;8.30;55.80
21807;DHT22;11065;50.786;7.840;2022-12-08T13:16:53;8.30;55.70
21807;DHT22;11065;50.786;7.840;2022-12-08T13:19:21;8.20;55.60
21807;DHT22;11065;50.786;7.840;2022-12-08T13:21:48;8.20;55.70
21807;DHT22;11065;50.786;7.840;2022-12-08T13:29:31;8.20;55.80
21807;DHT22;11065;50.786;7.840;2022-12-08T13:32:02;8.20;55.90
21807;DHT22;11065;50.786;7.840;2022-12-08T13:34:48;8.20;55.90
21807;DHT22;11065;50.786;7.840;2022-12-08T13:40:24;8.10;55.80
21807;DHT22;11065;50.786;7.840;2022-12-08T13:43:05;8.10;55.70
21807;DHT22;11065;50.786;7.840;2022-12-08T13:45:35;8.10;55.60
21807;DHT22;11065;50.786;7.840;2022-12-08T13:48:30;8.00;55.60
21807;DHT22;11065;50.786;7.840;2022-12-08T13:51:22;8.00;55.70
21807;DHT22;11065;50.786;7.840;2022-12-08T13:54:17;7.90;55.60
21807;DHT22;11065;50.786;7.840;2022-12-08T13:57:48;7.90;55.60
21807;DHT22;11065;50.786;7.840;2022-12-08T14:00:19;7.90;55.70
21807;DHT22;11065;50.786;7.840;2022-12-08T14:02:48;7.90;55.70
21807;DHT22;11065;50.786;7.840;2022-12-08T14:05:19;7.80;55.70
21807;DHT22;11065;50.786;7.840;2022-12-08T14:08:20;7.80;55.70
21807;DHT22;11065;50.786;7.840;2022-12-08T14:11:14;7.80;55.70
21807;DHT22;11065;50.786;7.840;2022-12-08T14:14:18;7.80;55.70
21807;DHT22;11065;50.786;7.840;2022-12-08T14:17:11;7.80;55.70
21807;DHT22;11065;50.786;7.840;2022-12-08T14:19:40;7.80;55.80
21807;DHT22;11065;50.786;7.840;2022-12-08T14:22:11;7.80;55.90
21807;DHT22;11065;50.786;7.840;2022-12-08T14:24:42;7.70;55.90
21807;DHT22;11065;50.786;7.840;2022-12-08T14:27:22;7.70;55.80
21807;DHT22;11065;50.786;7.840;2022-12-08T14:29:58;7.70;55.80
21807;DHT22;11065;50.786;7.840;2022-12-08T14:32:47;7.70;56.30
21807;DHT22;11065;50.786;7.840;2022-12-08T14:35:26;7.60;56.00
21807;DHT22;11065;50.786;7.840;2022-12-08T14:38:02;7.60;56.10
21807;DHT22;11065;50.786;7.840;2022-12-08T14:40:38;7.60;56.10
21807;DHT22;11065;50.786;7.840;2022-12-08T14:56:21;7.50;56.50
21807;DHT22;11065;50.786;7.840;2022-12-08T14:59:00;7.50;56.50
21807;DHT22;11065;50.786;7.840;2022-12-08T15:01:29;7.50;56.50
21807;DHT22;11065;50.786;7.840;2022-12-08T15:12:18;7.40;56.50
21807;DHT22;11065;50.786;7.840;2022-12-08T15:14:56;7.40;56.60
21807;DHT22;11065;50.786;7.840;2022-12-08T15:23:04;7.30;56.70
21807;DHT22;11065;50.786;7.840;2022-12-08T15:25:31;7.30;56.70
21807;DHT22;11065;50.786;7.840;2022-12-08T15:27:58;7.30;56.80
21807;DHT22;11065;50.786;7.840;2022-12-08T15:30:27;7.30;56.90
21807;DHT22;11065;50.786;7.840;2022-12-08T15:32:54;7.20;56.90
21807;DHT22;11065;50.786;7.840;2022-12-08T15:35:22;7.30;57.00
21807;DHT22;11065;50.786;7.840;2022-12-08T15:37:48;7.30;57.00
21807;DHT22;11065;50.786;7.840;2022-12-08T15:40:18;7.20;57.00
21807;DHT22;11065;50.786;7.840;2022-12-08T15:42:45;7.30;57.10
21807;DHT22;11065;50.786;7.840;2022-12-08T15:45:12;7.30;57.20
21807;DHT22;11065;50.786;7.840;2022-12-08T15:47:44;7.30;57.20
21807;DHT22;11065;50.786;7.840;2022-12-08T15:50:16;7.30;57.20
21807;DHT22;11065;50.786;7.840;2022-12-08T15:52:43;7.30;57.20
21807;DHT22;11065;50.786;7.840;2022-12-08T15:55:15;7.30;57.10
21807;DHT22;11065;50.786;7.840;2022-12-08T15:57:43;7.30;57.20
21807;DHT22;11065;50.786;7.840;2022-12-08T16:00:34;7.20;57.10
21807;DHT22;11065;50.786;7.840;2022-12-08T16:06:16;7.20;57.10
21807;DHT22;11065;50.786;7.840;2022-12-08T16:09:03;7.20;57.10
21807;DHT22;11065;50.786;7.840;2022-12-08T16:11:38;7.20;57.10
21807;DHT22;11065;50.786;7.840;2022-12-08T16:14:35;7.20;57.10
21807;DHT22;11065;50.786;7.840;2022-12-08T16:17:22;7.20;57.10
21807;DHT22;11065;50.786;7.840;2022-12-08T16:19:49;7.10;57.00
21807;DHT22;11065;50.786;7.840;2022-12-08T16:22:18;7.10;57.00
21807;DHT22;11065;50.786;7.840;2022-12-08T16:25:05;7.00;57.00
21807;DHT22;11065;50.786;7.840;2022-12-08T16:27:53;7.10;57.10
21807;DHT22;11065;50.786;7.840;2022-12-08T16:30:40;7.00;57.10
21807;DHT22;11065;50.786;7.840;2022-12-08T16:33:10;7.00;57.10
21807;DHT22;11065;50.786;7.840;2022-12-08T16:35:37;7.00;57.10
21807;DHT22;11065;50.786;7.840;2022-12-08T16:38:04;7.00;57.20
21807;DHT22;11065;50.786;7.840;2022-12-08T16:40:31;7.00;57.20
21807;DHT22;11065;50.786;7.840;2022-12-08T16:42:58;6.90;57.20
21807;DHT22;11065;50.786;7.840;2022-12-08T16:45:27;6.90;57.20
21807;DHT22;11065;50.786;7.840;2022-12-08T16:47:59;6.90;57.20
21807;DHT22;11065;50.786;7.840;2022-12-08T16:50:31;6.90;57.30
21807;DHT22;11065;50.786;7.840;2022-12-08T16:53:02;6.80;57.20
21807;DHT22;11065;50.786;7.840;2022-12-08T16:55:29;6.90;57.20
21807;DHT22;11065;50.786;7.840;2022-12-08T16:57:56;6.80;57.00
21807;DHT22;11065;50.786;7.840;2022-12-08T17:00:25;6.80;57.00
21807;DHT22;11065;50.786;7.840;2022-12-08T17:02:53;6.70;56.90
21807;DHT22;11065;50.786;7.840;2022-12-08T17:05:22;6.70;56.90
21807;DHT22;11065;50.786;7.840;2022-12-08T17:07:52;6.70;56.90
21807;DHT22;11065;50.786;7.840;2022-12-08T17:10:21;6.60;56.80
21807;DHT22;11065;50.786;7.840;2022-12-08T17:12:49;6.60;56.80
21807;DHT22;11065;50.786;7.840;2022-12-08T17:15:18;6.50;56.70
21807;DHT22;11065;50.786;7.840;2022-12-08T17:17:45;6.50;56.70
21807;DHT22;11065;50.786;7.840;2022-12-08T17:20:18;6.40;56.70
21807;DHT22;11065;50.786;7.840;2022-12-08T17:22:46;6.40;56.80
21807;DHT22;11065;50.786;7.840;2022-12-08T17:25:13;6.40;56.80
21807;DHT22;11065;50.786;7.840;2022-12-08T17:27:40;6.30;56.70
21807;DHT22;11065;50.786;7.840;2022-12-08T17:30:09;6.30;56.70
21807;DHT22;11065;50.786;7.840;2022-12-08T17:32:37;6.20;56.70
21807;DHT22;11065;50.786;7.840;2022-12-08T17:35:05;6.20;56.70
21807;DHT22;11065;50.786;7.840;2022-12-08T17:37:33;6.20;56.70
21807;DHT22;11065;50.786;7.840;2022-12-08T17:39:59;6.10;56.70
21807;DHT22;11065;50.786;7.840;2022-12-08T17:42:26;6.10;56.70
21807;DHT22;11065;50.786;7.840;2022-12-08T17:44:53;6.10;56.60
21807;DHT22;11065;50.786;7.840;2022-12-08T17:47:20;6.00;56.50
21807;DHT22;11065;50.786;7.840;2022-12-08T17:49:47;6.00;56.50
21807;DHT22;11065;50.786;7.840;2022-12-08T17:52:14;5.90;56.40
21807;DHT22;11065;50.786;7.840;2022-12-08T17:54:40;5.90;56.40
21807;DHT22;11065;50.786;7.840;2022-12-08T17:57:07;5.80;56.40
21807;DHT22;11065;50.786;7.840;2022-12-08T17:59:34;5.80;56.40
21807;DHT22;11065;50.786;7.840;2022-12-08T18:02:01;5.70;56.40